createdAt,value
2018-03-07T00:00:09.377Z,99173.70
2018-03-07T00:02:37.108Z,99175.55
2018-03-07T00:05:04.833Z,99174.61
2018-03-07T00:07:32.443Z,99181.77
2018-03-07T00:10:00.061Z,99175.73
2018-03-07T00:12:27.694Z,99176.30
2018-03-07T00:14:55.266Z,99173.70
2018-03-07T00:17:22.832Z,99171.95
2018-03-07T00:19:50.441Z,99169.41
2018-03-07T00:22:18.025Z,99169.98
2018-03-07T00:24:45.608Z,99177.89
2018-03-07T00:27:13.234Z,99180.75
2018-03-07T00:29:40.835Z,99175.12
2018-03-07T00:32:08.468Z,99181.94
2018-03-07T00:34:36.064Z,99177.09
2018-03-07T00:37:03.651Z,99174.96
2018-03-07T00:39:31.273Z,99173.53
2018-03-07T00:41:58.822Z,99177.33
2018-03-07T00:44:26.692Z,99175.94
2018-03-07T00:46:54.330Z,99166.80
2018-03-07T00:49:21.911Z,99165.01
2018-03-07T00:51:49.532Z,99162.39
2018-03-07T00:54:17.153Z,99159.62
2018-03-07T00:56:44.740Z,99163.05
2018-03-07T00:59:12.294Z,99160.89
2018-03-07T01:01:39.906Z,99155.91
2018-03-07T01:04:07.551Z,99159.87
2018-03-07T01:06:35.111Z,99156.40
2018-03-07T01:09:02.997Z,99159.62
2018-03-07T01:11:30.824Z,99158.06
2018-03-07T01:13:58.381Z,99160.76
2018-03-07T01:16:25.994Z,99160.11
2018-03-07T01:18:53.601Z,99162.34
2018-03-07T01:21:21.241Z,99153.47
2018-03-07T01:23:48.838Z,99161.70
2018-03-07T01:26:16.439Z,99157.90
2018-03-07T01:28:44.046Z,99159.57
2018-03-07T01:31:11.681Z,99158.87
2018-03-07T01:33:39.294Z,99157.04
2018-03-07T01:36:06.935Z,99158.00
2018-03-07T01:38:34.513Z,99153.23
2018-03-07T01:41:02.109Z,99151.44
2018-03-07T01:43:29.731Z,99154.44
2018-03-07T01:45:57.337Z,99151.91
2018-03-07T01:48:24.923Z,99149.85
2018-03-07T01:50:52.562Z,99145.25
2018-03-07T01:53:20.394Z,99148.42
2018-03-07T01:55:54.274Z,99143.77
2018-03-07T01:58:21.892Z,99144.22
2018-03-07T02:00:49.469Z,99142.82
2018-03-07T02:03:17.103Z,99141.77
2018-03-07T02:05:46.654Z,99136.17
2018-03-07T02:08:14.509Z,99133.41
2018-03-07T02:10:42.081Z,99136.00
2018-03-07T02:13:09.695Z,99132.14
2018-03-07T02:15:37.811Z,99132.91
2018-03-07T02:18:05.403Z,99136.00
2018-03-07T02:20:32.991Z,99131.57
2018-03-07T02:23:00.602Z,99138.85
2018-03-07T02:25:28.170Z,99134.42
2018-03-07T02:27:55.746Z,99131.11
2018-03-07T02:30:23.363Z,99136.77
2018-03-07T02:32:51.037Z,99130.63
2018-03-07T02:35:18.601Z,99124.30
2018-03-07T02:37:46.261Z,99121.62
2018-03-07T02:40:13.846Z,99119.47
2018-03-07T02:42:41.400Z,99116.78
2018-03-07T02:45:09.054Z,99122.88
2018-03-07T02:47:36.650Z,99127.06
2018-03-07T02:50:04.291Z,99126.34
2018-03-07T02:52:31.880Z,99123.66
2018-03-07T02:54:59.493Z,99127.53
2018-03-07T02:57:27.088Z,99125.81
2018-03-07T02:59:54.675Z,99128.66
2018-03-07T03:02:22.319Z,99129.68
2018-03-07T03:04:50.195Z,99137.91
2018-03-07T03:07:17.783Z,99150.16
2018-03-07T03:09:45.398Z,99141.45
2018-03-07T03:12:13.204Z,99144.53
2018-03-07T03:14:40.781Z,99150.31
2018-03-07T03:17:08.428Z,99151.25
2018-03-07T03:19:36.015Z,99157.73
2018-03-07T03:22:03.715Z,99155.58
2018-03-07T03:24:31.306Z,99159.20
2018-03-07T03:26:58.897Z,99157.77
2018-03-07T03:29:26.508Z,99158.87
2018-03-07T03:31:54.162Z,99159.02
2018-03-07T03:34:21.735Z,99166.31
2018-03-07T03:36:49.416Z,99165.44
2018-03-07T03:39:17.008Z,99166.78
2018-03-07T03:41:44.596Z,99170.33
2018-03-07T03:44:12.229Z,99160.28
2018-03-07T03:46:39.862Z,99164.30
2018-03-07T03:49:07.463Z,99177.02
2018-03-07T03:51:35.035Z,99170.91
2018-03-07T03:54:02.709Z,99176.30
2018-03-07T03:56:30.289Z,99181.49
2018-03-07T03:58:57.909Z,99180.04
2018-03-07T04:01:25.469Z,99182.33
2018-03-07T04:03:53.061Z,99187.12
2018-03-07T04:06:20.824Z,99186.47
2018-03-07T04:08:48.407Z,99191.19
2018-03-07T04:11:16.188Z,99185.55
2018-03-07T04:13:43.805Z,99195.17
2018-03-07T04:16:11.398Z,99190.75
2018-03-07T04:18:38.993Z,99193.34
2018-03-07T04:21:06.634Z,99194.59
2018-03-07T04:23:34.231Z,99199.70
2018-03-07T04:26:01.870Z,99193.87
2018-03-07T04:28:29.449Z,99193.00
2018-03-07T04:30:57.004Z,99201.48
2018-03-07T04:33:24.648Z,99202.77
2018-03-07T04:35:52.230Z,99205.42
2018-03-07T04:38:19.838Z,99206.73
2018-03-07T04:40:47.471Z,99201.98
2018-03-07T04:43:15.469Z,99202.58
2018-03-07T04:45:43.057Z,99202.64
2018-03-07T04:48:10.718Z,99200.34
2018-03-07T04:50:38.277Z,99194.66
2018-03-07T04:53:06.218Z,99199.93
2018-03-07T04:55:33.878Z,99194.72
2018-03-07T04:58:01.448Z,99193.44
2018-03-07T05:00:29.091Z,99198.86
2018-03-07T05:02:56.678Z,99194.34
2018-03-07T05:05:24.234Z,99195.73
2018-03-07T05:07:52.197Z,99196.15
2018-03-07T05:10:19.833Z,99197.39
2018-03-07T05:12:47.416Z,99194.46
2018-03-07T05:15:15.384Z,99194.46
2018-03-07T05:17:42.962Z,99198.64
2018-03-07T05:20:10.614Z,99198.11
2018-03-07T05:22:38.208Z,99205.34
2018-03-07T05:25:05.800Z,99199.76
2018-03-07T05:27:33.404Z,99202.03
2018-03-07T05:30:01.011Z,99196.27
2018-03-07T05:32:28.599Z,99204.22
2018-03-07T05:34:56.285Z,99195.45
2018-03-07T05:37:23.900Z,99191.58
2018-03-07T05:39:51.569Z,99192.98
2018-03-07T05:42:19.137Z,99185.50
2018-03-07T05:44:46.860Z,99190.20
2018-03-07T05:47:14.650Z,99189.95
2018-03-07T05:49:42.360Z,99189.73
2018-03-07T05:52:10.006Z,99194.19
2018-03-07T05:54:37.630Z,99201.00
2018-03-07T05:57:05.242Z,99206.36
2018-03-07T05:59:32.847Z,99213.84
2018-03-07T06:02:00.465Z,99216.68
2018-03-07T06:04:28.203Z,99218.33
2018-03-07T06:06:55.978Z,99216.64
2018-03-07T06:09:23.636Z,99223.90
2018-03-07T06:11:51.277Z,99228.61
2018-03-07T06:14:18.982Z,99228.97
2018-03-07T06:16:46.667Z,99234.53
2018-03-07T06:19:14.373Z,99242.25
2018-03-07T06:21:42.036Z,99238.87
2018-03-07T06:24:09.668Z,99244.28
2018-03-07T06:26:37.248Z,99248.30
2018-03-07T06:29:05.040Z,99244.06
2018-03-07T06:31:32.653Z,99243.66
2018-03-07T06:34:00.581Z,99249.58
2018-03-07T06:36:28.219Z,99247.63
2018-03-07T06:38:56.003Z,99246.49
2018-03-07T06:41:23.817Z,99250.26
2018-03-07T06:43:51.476Z,99252.31
2018-03-07T06:46:19.141Z,99258.08
2018-03-07T06:48:46.786Z,99258.08
2018-03-07T06:51:14.402Z,99268.54
2018-03-07T06:53:42.211Z,99261.28
2018-03-07T06:56:10.054Z,99268.69
2018-03-07T06:58:38.037Z,99277.41
2018-03-07T07:01:05.992Z,99277.41
2018-03-07T07:03:33.563Z,99282.23
2018-03-07T07:06:01.135Z,99282.19
2018-03-07T07:08:28.747Z,99280.39
2018-03-07T07:10:56.368Z,99284.52
2018-03-07T07:13:23.952Z,99290.70
2018-03-07T07:15:51.519Z,99288.89
2018-03-07T07:18:19.119Z,99287.30
2018-03-07T07:20:46.700Z,99288.38
2018-03-07T07:23:14.408Z,99294.92
2018-03-07T07:25:42.005Z,99292.80
2018-03-07T07:28:09.588Z,99299.15
2018-03-07T07:30:37.236Z,99299.66
2018-03-07T07:33:04.948Z,99300.73
2018-03-07T07:35:32.525Z,99309.59
2018-03-07T07:38:00.166Z,99309.17
2018-03-07T07:40:27.771Z,99320.98
2018-03-07T07:42:55.344Z,99320.14
2018-03-07T07:45:22.984Z,99323.42
2018-03-07T07:47:50.561Z,99323.17
2018-03-07T07:50:18.150Z,99324.66
2018-03-07T07:52:45.798Z,99330.06
2018-03-07T07:55:13.380Z,99328.32
2018-03-07T07:57:40.955Z,99336.80
2018-03-07T08:00:08.606Z,99337.36
2018-03-07T08:02:36.160Z,99341.06
2018-03-07T08:05:03.730Z,99345.28
2018-03-07T08:07:31.374Z,99348.64
2018-03-07T08:09:59.261Z,99347.24
2018-03-07T08:12:26.883Z,99354.28
2018-03-07T08:14:54.553Z,99356.10
2018-03-07T08:17:22.117Z,99358.06
2018-03-07T08:19:49.714Z,99358.02
2018-03-07T08:22:17.345Z,99352.25
2018-03-07T08:24:44.920Z,99353.29
2018-03-07T08:27:12.536Z,99350.57
2018-03-07T08:29:40.093Z,99354.65
2018-03-07T08:32:07.652Z,99349.30
2018-03-07T08:34:35.289Z,99346.02
2018-03-07T08:37:02.861Z,99344.80
2018-03-07T08:39:30.442Z,99351.58
2018-03-07T08:41:58.405Z,99354.78
2018-03-07T08:44:25.966Z,99355.62
2018-03-07T08:46:53.544Z,99357.12
2018-03-07T08:49:21.124Z,99359.82
2018-03-07T08:51:48.736Z,99362.10
2018-03-07T08:54:16.396Z,99363.75
2018-03-07T08:56:44.013Z,99357.98
2018-03-07T08:59:11.944Z,99363.77
2018-03-07T09:01:39.558Z,99359.91
2018-03-07T09:04:07.147Z,99367.29
2018-03-07T09:06:34.743Z,99362.64
2018-03-07T09:09:02.388Z,99368.77
2018-03-07T09:11:30.194Z,99362.23
2018-03-07T09:13:57.827Z,99358.98
2018-03-07T09:16:25.448Z,99361.96
2018-03-07T09:18:53.029Z,99361.39
2018-03-07T09:21:20.608Z,99360.09
2018-03-07T09:23:48.266Z,99364.61
2018-03-07T09:26:15.838Z,99361.04
2018-03-07T09:28:43.435Z,99354.41
2018-03-07T09:31:11.050Z,99358.25
2018-03-07T09:33:38.633Z,99362.76
2018-03-07T09:36:06.217Z,99365.04
2018-03-07T09:38:33.824Z,99359.29
2018-03-07T09:41:01.424Z,99357.60
2018-03-07T09:43:29.012Z,99361.09
2018-03-07T09:45:56.718Z,99363.03
2018-03-07T09:48:24.343Z,99360.48
2018-03-07T09:50:52.133Z,99361.88
2018-03-07T09:53:19.799Z,99363.58
2018-03-07T09:55:47.445Z,99366.53
2018-03-07T09:58:15.264Z,99365.78
2018-03-07T10:00:43.298Z,99367.39
2018-03-07T10:03:10.856Z,99369.25
2018-03-07T10:05:38.438Z,99368.09
2018-03-07T10:08:06.046Z,99355.52
2018-03-07T10:10:33.621Z,99360.13
2018-03-07T10:13:01.280Z,99368.19
2018-03-07T10:15:28.905Z,99361.92
2018-03-07T10:17:56.477Z,99363.16
2018-03-07T10:20:24.123Z,99356.45
2018-03-07T10:22:51.771Z,99363.21
2018-03-07T10:25:19.605Z,99365.82
2018-03-07T10:27:47.263Z,99358.94
2018-03-07T10:30:14.851Z,99362.67
2018-03-07T10:32:42.703Z,99371.70
2018-03-07T10:35:10.366Z,99366.20
2018-03-07T10:37:37.967Z,99362.52
2018-03-07T10:40:05.586Z,99364.73
2018-03-07T10:42:33.187Z,99360.92
2018-03-07T10:45:00.821Z,99370.44
2018-03-07T10:47:28.389Z,99367.65
2018-03-07T10:49:55.974Z,99362.75
2018-03-07T10:52:23.610Z,99364.60
2018-03-07T10:54:51.200Z,99365.09
2018-03-07T10:57:19.022Z,99358.52
2018-03-07T10:59:46.982Z,99363.84
2018-03-07T11:02:14.641Z,99356.14
2018-03-07T11:04:42.316Z,99357.62
2018-03-07T11:07:10.138Z,99353.09
2018-03-07T11:09:37.702Z,99358.45
2018-03-07T11:12:05.350Z,99355.25
2018-03-07T11:14:32.965Z,99356.05
2018-03-07T11:17:00.556Z,99356.00
2018-03-07T11:19:28.205Z,99349.85
2018-03-07T11:21:55.834Z,99358.31
2018-03-07T11:24:23.426Z,99357.53
2018-03-07T11:26:51.020Z,99357.80
2018-03-07T11:29:18.680Z,99359.75
2018-03-07T11:31:46.269Z,99355.84
2018-03-07T11:34:13.906Z,99361.84
2018-03-07T11:36:41.512Z,99369.35
2018-03-07T11:39:09.483Z,99372.39
2018-03-07T11:41:37.066Z,99372.94
2018-03-07T11:44:05.019Z,99373.28
2018-03-07T11:46:32.634Z,99370.15
2018-03-07T11:49:00.370Z,99368.41
2018-03-07T11:51:39.496Z,99366.77
2018-03-07T11:54:07.063Z,99371.59
2018-03-07T11:56:34.653Z,99364.85
2018-03-07T11:59:02.303Z,99371.91
2018-03-07T12:01:29.922Z,99368.78
2018-03-07T12:03:57.516Z,99376.47
2018-03-07T12:06:25.157Z,99371.23
2018-03-07T12:08:52.747Z,99368.72
2018-03-07T12:11:20.345Z,99368.14
2018-03-07T12:13:47.975Z,99361.27
2018-03-07T12:16:15.592Z,99360.70
2018-03-07T12:18:43.156Z,99351.74
2018-03-07T12:21:10.862Z,99355.14
2018-03-07T12:23:38.429Z,99340.80
2018-03-07T12:26:06.003Z,99339.06
2018-03-07T12:28:33.688Z,99336.70
2018-03-07T12:31:01.259Z,99340.64
2018-03-07T12:33:28.827Z,99341.74
2018-03-07T12:35:56.447Z,99340.82
2018-03-07T12:38:24.044Z,99344.08
2018-03-07T12:40:51.640Z,99337.91
2018-03-07T12:43:19.230Z,99343.09
2018-03-07T12:45:47.216Z,99345.97
2018-03-07T12:48:14.797Z,99345.34
2018-03-07T12:50:42.644Z,99343.33
2018-03-07T12:53:10.261Z,99347.31
2018-03-07T12:55:41.424Z,99343.64
2018-03-07T12:58:09.015Z,99340.55
2018-03-07T13:00:36.633Z,99338.16
2018-03-07T13:03:04.217Z,99343.67
2018-03-07T13:05:31.855Z,99341.44
2018-03-07T13:07:59.433Z,99350.01
2018-03-07T13:10:27.048Z,99340.75
2018-03-07T13:12:54.649Z,99337.53
2018-03-07T13:15:22.213Z,99336.02
2018-03-07T13:17:49.909Z,99348.89
2018-03-07T13:20:17.523Z,99342.58
2018-03-07T13:22:45.150Z,99340.82
2018-03-07T13:25:12.732Z,99344.91
2018-03-07T13:27:40.290Z,99339.53
2018-03-07T13:30:07.887Z,99346.44
2018-03-07T13:32:35.502Z,99349.36
2018-03-07T13:35:03.329Z,99352.49
2018-03-07T13:37:30.914Z,99347.37
2018-03-07T13:39:58.862Z,99345.54
2018-03-07T13:42:26.439Z,99343.31
2018-03-07T13:44:54.062Z,99349.15
2018-03-07T13:47:21.621Z,99345.56
2018-03-07T13:49:49.235Z,99341.26
2018-03-07T13:52:17.080Z,99345.98
2018-03-07T13:54:44.668Z,99345.09
2018-03-07T13:57:12.497Z,99347.48
2018-03-07T13:59:40.154Z,99354.54
2018-03-07T14:02:07.721Z,99352.93
2018-03-07T14:04:35.303Z,99357.12
2018-03-07T14:07:03.249Z,99356.77
2018-03-07T14:09:30.828Z,99356.55
2018-03-07T14:11:58.537Z,99361.73
2018-03-07T14:14:26.123Z,99358.35
2018-03-07T14:16:53.761Z,99360.58
2018-03-07T14:19:21.391Z,99358.16
2018-03-07T14:21:48.974Z,99358.18
2018-03-07T14:24:16.572Z,99351.66
2018-03-07T14:26:44.140Z,99356.73
2018-03-07T14:29:11.768Z,99361.36
2018-03-07T14:31:39.342Z,99353.01
2018-03-07T14:34:06.939Z,99352.78
2018-03-07T14:36:34.530Z,99353.80
2018-03-07T14:39:02.138Z,99354.84
2018-03-07T14:41:29.763Z,99354.72
2018-03-07T14:43:57.776Z,99346.52
2018-03-07T14:46:25.366Z,99348.80
2018-03-07T14:48:53.021Z,99348.47
2018-03-07T14:51:20.595Z,99349.47
2018-03-07T14:53:48.212Z,99350.66
2018-03-07T14:56:16.193Z,99354.84
2018-03-07T14:58:43.767Z,99349.33
2018-03-07T15:01:11.452Z,99347.86
2018-03-07T15:03:39.054Z,99347.24
2018-03-07T15:06:06.690Z,99345.16
2018-03-07T15:08:34.380Z,99350.85
2018-03-07T15:11:01.965Z,99345.10
2018-03-07T15:13:29.769Z,99344.60
2018-03-07T15:15:57.348Z,99344.23
2018-03-07T15:18:24.950Z,99347.55
2018-03-07T15:20:52.508Z,99344.41
2018-03-07T15:23:20.152Z,99344.93
2018-03-07T15:25:47.728Z,99347.20
2018-03-07T15:28:15.351Z,99348.16
2018-03-07T15:30:43.011Z,99339.64
2018-03-07T15:33:11.022Z,99338.77
2018-03-07T15:35:45.365Z,99339.15
2018-03-07T15:38:12.973Z,99347.86
2018-03-07T15:40:40.551Z,99344.66
2018-03-07T15:43:08.127Z,99352.25
2018-03-07T15:45:35.774Z,99352.41
2018-03-07T15:48:03.350Z,99351.97
2018-03-07T15:50:30.907Z,99355.61
2018-03-07T15:52:58.514Z,99360.16
2018-03-07T15:55:26.083Z,99359.97
2018-03-07T15:57:53.727Z,99368.99
2018-03-07T16:00:21.775Z,99369.73
2018-03-07T16:02:49.367Z,99367.75
2018-03-07T16:05:17.028Z,99369.57
2018-03-07T16:07:44.595Z,99369.16
2018-03-07T16:10:12.180Z,99377.34
2018-03-07T16:12:39.820Z,99375.02
2018-03-07T16:15:07.441Z,99375.80
2018-03-07T16:17:35.257Z,99374.59
2018-03-07T16:20:03.061Z,99375.74
2018-03-07T16:22:30.664Z,99380.01
2018-03-07T16:24:58.286Z,99375.39
2018-03-07T16:27:25.979Z,99380.77
2018-03-07T16:29:53.588Z,99380.09
2018-03-07T16:32:21.476Z,99388.27
2018-03-07T16:34:49.084Z,99386.82
2018-03-07T16:37:16.700Z,99393.62
2018-03-07T16:39:44.770Z,99394.67
2018-03-07T16:42:12.349Z,99406.33
2018-03-07T16:44:39.972Z,99402.67
2018-03-07T16:47:07.670Z,99396.30
2018-03-07T16:49:35.733Z,99402.70
2018-03-07T16:52:03.631Z,99402.10
2018-03-07T16:54:31.265Z,99407.20
2018-03-07T16:56:58.858Z,99404.37
2018-03-07T16:59:27.369Z,99403.70
2018-03-07T17:01:55.027Z,99407.16
2018-03-07T17:04:23.035Z,99404.84
2018-03-07T17:06:50.635Z,99409.36
2018-03-07T17:09:18.305Z,99409.41
2018-03-07T17:11:46.225Z,99407.27
2018-03-07T17:14:13.812Z,99405.90
2018-03-07T17:16:41.670Z,99412.82
2018-03-07T17:19:09.229Z,99412.66
2018-03-07T17:21:36.826Z,99417.89
2018-03-07T17:24:04.490Z,99419.31
2018-03-07T17:26:32.111Z,99418.79
2018-03-07T17:28:59.680Z,99417.62
2018-03-07T17:31:27.346Z,99427.00
2018-03-07T17:33:54.943Z,99425.48
2018-03-07T17:36:22.540Z,99436.16
2018-03-07T17:38:50.186Z,99438.73
2018-03-07T17:41:17.790Z,99435.90
2018-03-07T17:43:45.433Z,99445.06
2018-03-07T17:46:13.033Z,99445.06
2018-03-07T17:48:40.675Z,99446.14
2018-03-07T17:51:08.269Z,99454.19
2018-03-07T17:53:35.868Z,99459.36
2018-03-07T17:56:03.563Z,99464.97
2018-03-07T17:58:31.227Z,99471.44
2018-03-07T18:00:58.890Z,99474.44
2018-03-07T18:03:26.463Z,99472.62
2018-03-07T18:05:54.130Z,99467.81
2018-03-07T18:08:21.786Z,99472.23
2018-03-07T18:10:49.354Z,99471.86
2018-03-07T18:13:16.944Z,99474.25
2018-03-07T18:15:44.599Z,99481.77
2018-03-07T18:18:12.175Z,99480.19
2018-03-07T18:20:39.768Z,99485.16
2018-03-07T18:23:07.626Z,99482.15
2018-03-07T18:25:35.192Z,99489.97
2018-03-07T18:28:02.838Z,99492.36
2018-03-07T18:30:30.425Z,99488.72
2018-03-07T18:32:57.997Z,99495.88
2018-03-07T18:35:25.632Z,99483.09
2018-03-07T18:37:53.490Z,99494.23
2018-03-07T18:40:21.287Z,99496.08
2018-03-07T18:42:48.949Z,99490.76
2018-03-07T18:45:16.537Z,99491.55
2018-03-07T18:47:44.109Z,99496.00
2018-03-07T18:50:11.759Z,99489.50
2018-03-07T18:52:39.337Z,99497.28
2018-03-07T18:55:08.908Z,99496.50
2018-03-07T18:57:36.556Z,99502.47
2018-03-07T19:00:04.203Z,99505.27
2018-03-07T19:02:31.815Z,99502.97
2018-03-07T19:05:00.390Z,99496.08
2018-03-07T19:07:27.950Z,99494.20
2018-03-07T19:09:55.524Z,99498.54
2018-03-07T19:12:23.168Z,99495.80
2018-03-07T19:14:50.786Z,99493.10
2018-03-07T19:17:18.641Z,99491.19
2018-03-07T19:19:46.286Z,99497.41
2018-03-07T19:22:13.888Z,99491.77
2018-03-07T19:24:41.493Z,99491.98
2018-03-07T19:27:09.121Z,99495.05
2018-03-07T19:29:36.683Z,99495.59
2018-03-07T19:32:04.630Z,99493.06
2018-03-07T19:34:32.264Z,99499.64
2018-03-07T19:36:59.867Z,99500.45
2018-03-07T19:39:27.487Z,99499.50
2018-03-07T19:41:55.110Z,99498.29
2018-03-07T19:44:22.681Z,99502.66
2018-03-07T19:46:50.589Z,99504.66
2018-03-07T19:49:18.186Z,99500.38
2018-03-07T19:51:45.772Z,99506.27
2018-03-07T19:54:13.407Z,99501.35
2018-03-07T19:56:41.198Z,99501.43
2018-03-07T19:59:08.794Z,99510.41
2018-03-07T20:01:36.424Z,99513.51
2018-03-07T20:04:03.998Z,99510.98
2018-03-07T20:06:31.588Z,99512.24
2018-03-07T20:08:59.184Z,99511.22
2018-03-07T20:11:26.822Z,99502.96
2018-03-07T20:13:54.382Z,99512.02
2018-03-07T20:16:21.945Z,99512.80
2018-03-07T20:18:49.788Z,99511.52
2018-03-07T20:21:17.391Z,99515.95
2018-03-07T20:23:45.318Z,99515.48
2018-03-07T20:26:12.968Z,99511.36
2018-03-07T20:28:40.572Z,99509.61
2018-03-07T20:31:08.170Z,99525.24
2018-03-07T20:33:35.901Z,99524.38
2018-03-07T20:36:03.485Z,99523.27
2018-03-07T20:38:31.053Z,99526.10
2018-03-07T20:40:58.681Z,99515.08
2018-03-07T20:43:26.284Z,99524.76
2018-03-07T20:45:53.884Z,99529.58
2018-03-07T20:48:21.654Z,99530.15
2018-03-07T20:50:49.257Z,99531.33
2018-03-07T20:53:17.183Z,99534.41
2018-03-07T20:55:44.810Z,99526.64
2018-03-07T20:58:12.410Z,99533.53
2018-03-07T21:00:40.019Z,99531.94
2018-03-07T21:03:07.672Z,99548.11
2018-03-07T21:05:35.276Z,99538.05
2018-03-07T21:08:03.136Z,99541.45
2018-03-07T21:10:30.846Z,99537.88
2018-03-07T21:12:58.451Z,99541.67
2018-03-07T21:15:26.177Z,99542.81
2018-03-07T21:17:53.797Z,99537.34
2018-03-07T21:20:21.516Z,99539.78
2018-03-07T21:22:49.322Z,99540.88
2018-03-07T21:25:16.956Z,99542.39
2018-03-07T21:27:44.545Z,99539.61
2018-03-07T21:30:12.128Z,99541.11
2018-03-07T21:32:39.754Z,99550.55
2018-03-07T21:35:07.307Z,99547.77
2018-03-07T21:37:34.864Z,99549.58
2018-03-07T21:40:02.458Z,99554.34
2018-03-07T21:42:30.065Z,99554.08
2018-03-07T21:44:57.662Z,99549.16
2018-03-07T21:47:26.121Z,99555.09
2018-03-07T21:49:53.685Z,99550.86
2018-03-07T21:52:21.312Z,99548.17
2018-03-07T21:54:49.152Z,99548.73
2018-03-07T21:57:16.725Z,99550.09
2018-03-07T21:59:44.411Z,99552.62
2018-03-07T22:02:12.076Z,99550.33
2018-03-07T22:04:39.775Z,99548.98
2018-03-07T22:07:07.390Z,99552.44
2018-03-07T22:09:35.222Z,99549.10
2018-03-07T22:12:02.793Z,99553.75
2018-03-07T22:14:30.491Z,99553.16
2018-03-07T22:16:58.079Z,99550.85
2018-03-07T22:19:25.789Z,99557.34
2018-03-07T22:21:53.512Z,99554.87
2018-03-07T22:24:21.076Z,99557.00
2018-03-07T22:26:48.943Z,99550.02
2018-03-07T22:29:16.570Z,99554.00
2018-03-07T22:31:44.157Z,99560.06
2018-03-07T22:34:11.825Z,99565.61
2018-03-07T22:36:39.414Z,99561.32
2018-03-07T22:39:06.972Z,99565.61
2018-03-07T22:41:34.820Z,99561.07
2018-03-07T22:44:02.532Z,99564.98
2018-03-07T22:46:30.159Z,99559.35
2018-03-07T22:48:57.764Z,99560.61
2018-03-07T22:51:25.425Z,99563.86
2018-03-07T22:53:53.030Z,99561.08
2018-03-07T22:56:21.155Z,99566.36
2018-03-07T22:58:48.901Z,99563.98
2018-03-07T23:01:16.541Z,99565.64
2018-03-07T23:03:44.198Z,99568.87
2018-03-07T23:06:11.749Z,99568.62
2018-03-07T23:08:39.549Z,99569.74
2018-03-07T23:11:07.166Z,99568.84
2018-03-07T23:13:34.822Z,99564.58
2018-03-07T23:16:02.638Z,99565.67
2018-03-07T23:18:30.348Z,99560.61
2018-03-07T23:20:58.014Z,99570.62
2018-03-07T23:23:25.638Z,99569.80
2018-03-07T23:25:53.197Z,99574.63
2018-03-07T23:28:20.867Z,99572.77
2018-03-07T23:30:48.481Z,99581.56
2018-03-07T23:33:16.072Z,99581.94
2018-03-07T23:35:43.655Z,99585.00
2018-03-07T23:38:11.565Z,99586.93
2018-03-07T23:40:39.183Z,99586.77
2018-03-07T23:43:06.786Z,99597.90
2018-03-07T23:45:34.493Z,99597.74
2018-03-07T23:48:02.056Z,99595.15
2018-03-07T23:50:29.676Z,99598.41
2018-03-07T23:52:57.306Z,99601.88
2018-03-07T23:55:24.998Z,99599.28
2018-03-07T23:57:52.693Z,99597.44
